Van Horn, Texas
Current Conditions -  °F | °C
As of 2:15 AM on Monday 26 Jan 2015 (Local Time) from KMRF Reporting Station
Clear Clear  
Wind Chill: 20°   Ceiling: Unl
Heat Index: 28°   Visibility: 10mi
Dew Point: 25°   Wind: 8mph
Humidity: 86%   Direction: 330°NNW
Pressure: 30.35"   Gusts: NA
Location:  31.04°N, 104.83°W
Report Text: KMRF 260815Z AUTO 33007KT 10SM CLR M02/M04 A3035 RMK AO1
Loading
Personal Weather Stations






























Interactive Weather Map New forecast layout! Learn more

10-Day Weather Forecast

Advertisements
Track Severe Weather on mobile